Terminal Aerodrome Forecast
Issued by NWS

Home | Current Version | Previous Version | Text Only | Print | Product List | Glossary Off
Versions: 1 2 3 4 5 6 7 8 9 10 11 12 13 14 15

000
FTUS43 KBIS 141700
TAFJMS
TAF
KJMS 141727Z 1418/1518 34017KT P6SM BKN035
      TEMPO 1418/1421 6SM -SHSN OVC025
     FM142100 34015KT P6SM SCT040
     FM150200 VRB05KT P6SM SKC
     FM151400 16012KT P6SM BKN080=

USA.gov is the U.S. government's official web portal to all federal, state and local government web resources and services.